createdAt,value
2019-05-22T00:01:01.359Z,85.50
2019-05-22T00:03:37.638Z,85.30
2019-05-22T00:06:10.154Z,84.30
2019-05-22T00:08:43.574Z,85.00
2019-05-22T00:11:15.118Z,84.30
2019-05-22T00:13:48.201Z,84.20
2019-05-22T00:16:20.431Z,84.20
2019-05-22T00:18:52.845Z,84.20
2019-05-22T00:21:25.179Z,84.20
2019-05-22T00:23:56.584Z,84.40
2019-05-22T00:26:28.933Z,84.10
2019-05-22T00:28:59.478Z,84.30
2019-05-22T00:31:30.706Z,84.40
2019-05-22T00:34:01.235Z,84.20
2019-05-22T00:36:32.932Z,84.20
2019-05-22T00:39:05.361Z,84.20
2019-05-22T00:41:37.509Z,84.30
2019-05-22T00:44:10.642Z,85.00
2019-05-22T00:46:43.912Z,84.80
2019-05-22T00:49:16.316Z,85.40
2019-05-22T00:52:07.472Z,85.80
2019-05-22T00:54:47.415Z,86.10
2019-05-22T00:57:45.255Z,86.40
2019-05-22T01:00:35.366Z,86.50
2019-05-22T01:03:07.753Z,86.50
2019-05-22T01:05:43.441Z,86.80
2019-05-22T01:08:16.899Z,86.80
2019-05-22T01:10:50.835Z,86.80
2019-05-22T01:13:22.762Z,86.30
2019-05-22T01:15:55.360Z,86.40
2019-05-22T01:18:28.514Z,86.10
2019-05-22T01:21:00.919Z,85.90
2019-05-22T01:23:34.075Z,85.60
2019-05-22T01:26:05.649Z,84.90
2019-05-22T01:28:37.294Z,84.70
2019-05-22T01:31:20.462Z,84.90
2019-05-22T01:34:05.676Z,84.20
2019-05-22T01:36:56.737Z,85.10
2019-05-22T01:39:43.385Z,84.40
2019-05-22T01:42:21.112Z,84.20
2019-05-22T01:45:03.874Z,84.50
2019-05-22T01:47:49.415Z,84.30
2019-05-22T01:50:36.543Z,84.30
2019-05-22T01:53:09.020Z,84.20
2019-05-22T01:55:39.703Z,84.20
2019-05-22T01:58:11.700Z,84.20
2019-05-22T02:00:44.300Z,83.80
2019-05-22T02:03:17.292Z,84.20
2019-05-22T02:05:48.672Z,84.10
2019-05-22T02:08:21.447Z,84.10
2019-05-22T02:10:54.455Z,84.00
2019-05-22T02:13:35.757Z,83.70
2019-05-22T02:16:08.604Z,83.50
2019-05-22T02:18:42.745Z,83.90
2019-05-22T02:21:13.786Z,84.00
2019-05-22T02:23:45.891Z,84.00
2019-05-22T02:26:17.885Z,84.10
2019-05-22T02:28:50.040Z,84.10
2019-05-22T02:31:23.428Z,84.10
2019-05-22T02:34:02.646Z,84.10
2019-05-22T02:36:35.016Z,84.10
2019-05-22T02:39:13.162Z,83.90
2019-05-22T02:41:50.371Z,84.10
2019-05-22T02:44:22.858Z,84.00
2019-05-22T02:46:54.474Z,84.10
2019-05-22T02:49:26.441Z,84.20
2019-05-22T02:51:58.999Z,84.10
2019-05-22T02:54:31.458Z,84.20
2019-05-22T02:57:03.524Z,84.20
2019-05-22T02:59:34.593Z,84.60
2019-05-22T03:02:08.164Z,84.20
2019-05-22T03:05:06.128Z,83.90
2019-05-22T03:07:39.883Z,84.00
2019-05-22T03:10:14.345Z,83.80
2019-05-22T03:12:46.433Z,83.50
2019-05-22T03:15:19.888Z,83.70
2019-05-22T03:17:52.091Z,83.80
2019-05-22T03:20:24.281Z,84.20
2019-05-22T03:23:12.947Z,84.10
2019-05-22T03:25:44.804Z,84.20
2019-05-22T03:28:15.494Z,84.20
2019-05-22T03:30:47.897Z,84.30
2019-05-22T03:33:19.152Z,84.70
2019-05-22T03:35:51.715Z,85.30
2019-05-22T03:38:23.393Z,85.50
2019-05-22T03:40:54.884Z,85.80
2019-05-22T03:43:28.051Z,85.90
2019-05-22T03:46:02.804Z,86.10
2019-05-22T03:48:36.328Z,86.30
2019-05-22T03:51:13.424Z,86.70
2019-05-22T03:53:44.718Z,87.00
2019-05-22T03:56:16.935Z,86.80
2019-05-22T03:58:47.539Z,87.00
2019-05-22T04:01:19.774Z,86.90
2019-05-22T04:03:51.588Z,86.50
2019-05-22T04:06:25.649Z,86.50
2019-05-22T04:09:00.427Z,86.50
2019-05-22T04:11:35.929Z,86.60
2019-05-22T04:14:06.644Z,86.20
2019-05-22T04:16:39.167Z,86.60
2019-05-22T04:19:09.978Z,86.30
2019-05-22T04:21:42.444Z,86.00
2019-05-22T04:24:14.046Z,86.20
2019-05-22T04:26:44.783Z,85.60
2019-05-22T04:29:16.429Z,85.40
2019-05-22T04:31:57.185Z,85.00
2019-05-22T04:34:28.141Z,85.00
2019-05-22T04:36:58.652Z,85.40
2019-05-22T04:39:32.401Z,85.30
2019-05-22T04:42:04.717Z,85.50
2019-05-22T04:44:36.953Z,85.40
2019-05-22T04:47:08.048Z,85.40
2019-05-22T04:49:38.997Z,86.00
2019-05-22T04:52:10.071Z,87.00
2019-05-22T04:54:41.246Z,87.80
2019-05-22T04:57:11.943Z,88.00
2019-05-22T04:59:42.891Z,88.20
2019-05-22T05:02:13.869Z,88.50
2019-05-22T05:04:44.999Z,88.60
2019-05-22T05:07:15.731Z,88.60
2019-05-22T05:09:46.674Z,88.70
2019-05-22T05:12:17.264Z,89.00
2019-05-22T05:14:48.197Z,89.10
2019-05-22T05:17:19.222Z,89.10
2019-05-22T05:19:49.803Z,88.90
2019-05-22T05:22:27.287Z,89.10
2019-05-22T05:24:59.115Z,88.80
2019-05-22T05:27:31.795Z,88.90
2019-05-22T05:30:03.387Z,88.60
2019-05-22T05:32:34.377Z,89.00
2019-05-22T05:35:18.208Z,89.00
2019-05-22T05:37:56.452Z,88.70
2019-05-22T05:40:39.012Z,88.80
2019-05-22T05:43:13.613Z,88.90
2019-05-22T05:45:48.366Z,88.90
2019-05-22T05:48:21.766Z,89.00
2019-05-22T05:51:25.222Z,88.80
2019-05-22T05:54:11.166Z,89.10
2019-05-22T05:56:45.143Z,89.00
2019-05-22T05:59:19.762Z,89.30
2019-05-22T06:01:55.697Z,89.40
2019-05-22T06:04:36.053Z,89.00
2019-05-22T06:07:20.866Z,89.30
2019-05-22T06:10:30.094Z,88.90
2019-05-22T06:13:01.667Z,89.40
2019-05-22T06:15:51.446Z,89.40
2019-05-22T06:18:37.375Z,89.30
2019-05-22T06:21:08.620Z,89.10
2019-05-22T06:24:37.274Z,89.30
2019-05-22T06:27:41.439Z,88.30
2019-05-22T06:30:17.396Z,88.70
2019-05-22T06:33:35.117Z,88.70
2019-05-22T06:36:10.544Z,88.30
2019-05-22T06:39:03.761Z,88.30
2019-05-22T06:41:42.112Z,87.90
2019-05-22T06:44:46.442Z,88.00
2019-05-22T06:47:22.467Z,87.50
2019-05-22T06:49:56.636Z,87.30
2019-05-22T06:52:28.144Z,87.40
2019-05-22T06:54:59.135Z,87.20
2019-05-22T06:57:33.386Z,87.20
2019-05-22T07:00:15.433Z,87.00
2019-05-22T07:02:48.529Z,87.50
2019-05-22T07:05:19.166Z,87.30
2019-05-22T07:07:59.455Z,87.20
2019-05-22T07:10:37.353Z,87.40
2019-05-22T07:13:11.902Z,87.10
2019-05-22T07:15:50.267Z,87.70
2019-05-22T07:18:24.036Z,87.00
2019-05-22T07:20:56.939Z,87.00
2019-05-22T07:23:29.406Z,86.20
2019-05-22T07:26:07.090Z,85.90
2019-05-22T07:28:46.175Z,85.80
2019-05-22T07:31:19.603Z,85.80
2019-05-22T07:33:56.260Z,85.80
2019-05-22T07:36:30.947Z,85.70
2019-05-22T07:39:02.061Z,85.60
2019-05-22T07:41:32.857Z,84.90
2019-05-22T07:44:06.695Z,85.20
2019-05-22T07:46:40.258Z,84.20
2019-05-22T07:49:13.971Z,84.10
2019-05-22T07:51:56.120Z,84.50
2019-05-22T07:54:20.442Z,84.90
2019-05-22T07:56:52.461Z,84.10
2019-05-22T07:59:50.177Z,84.90
2019-05-22T08:02:33.903Z,84.90
2019-05-22T08:05:06.702Z,84.50
2019-05-22T08:07:43.256Z,83.60
2019-05-22T08:10:23.128Z,83.30
2019-05-22T08:13:00.244Z,83.40
2019-05-22T08:15:32.293Z,83.80
2019-05-22T08:18:05.381Z,84.60
2019-05-22T08:20:41.550Z,84.30
2019-05-22T08:23:13.168Z,83.30
2019-05-22T08:25:46.758Z,83.50
2019-05-22T08:28:20.132Z,83.50
2019-05-22T08:30:55.711Z,83.50
2019-05-22T08:33:49.961Z,83.30
2019-05-22T08:36:23.764Z,83.20
2019-05-22T08:38:57.699Z,82.80
2019-05-22T08:41:38.837Z,83.20
2019-05-22T08:44:16.801Z,83.70
2019-05-22T08:46:50.347Z,82.80
2019-05-22T08:49:27.666Z,83.00
2019-05-22T08:52:00.137Z,83.00
2019-05-22T08:54:32.836Z,83.30
2019-05-22T08:57:04.171Z,84.20
2019-05-22T08:59:35.962Z,84.20
2019-05-22T09:02:09.627Z,83.50
2019-05-22T09:04:45.659Z,83.40
2019-05-22T09:07:20.174Z,83.00
2019-05-22T09:09:51.208Z,83.40
2019-05-22T09:12:23.470Z,83.30
2019-05-22T09:14:58.046Z,82.40
2019-05-22T09:17:33.669Z,81.40
2019-05-22T09:20:09.035Z,81.20
2019-05-22T09:22:41.632Z,80.80
2019-05-22T09:25:16.527Z,79.90
2019-05-22T09:27:55.278Z,79.20
2019-05-22T09:30:27.172Z,78.50
2019-05-22T09:32:58.968Z,76.70
2019-05-22T09:35:30.115Z,76.40
2019-05-22T09:38:00.983Z,76.60
2019-05-22T09:40:33.230Z,75.70
2019-05-22T09:43:05.138Z,74.40
2019-05-22T09:45:37.760Z,75.00
2019-05-22T09:48:09.403Z,75.40
2019-05-22T09:50:41.978Z,75.50
2019-05-22T09:53:13.961Z,75.60
2019-05-22T09:55:49.940Z,75.90
2019-05-22T09:58:28.255Z,75.80
2019-05-22T10:01:01.042Z,77.30
2019-05-22T10:03:32.110Z,76.20
2019-05-22T10:06:03.284Z,75.70
2019-05-22T10:08:34.519Z,76.10
2019-05-22T10:11:05.540Z,76.40
2019-05-22T10:13:38.873Z,76.60
2019-05-22T10:16:10.155Z,76.50
2019-05-22T10:18:41.948Z,76.10
2019-05-22T10:21:13.087Z,76.60
2019-05-22T10:24:01.829Z,76.90
2019-05-22T10:26:33.808Z,76.60
2019-05-22T10:29:05.372Z,77.10
2019-05-22T10:31:37.696Z,76.90
2019-05-22T10:34:08.915Z,77.10
2019-05-22T10:36:43.098Z,76.50
2019-05-22T10:39:13.459Z,76.40
2019-05-22T10:41:45.604Z,76.60
2019-05-22T10:44:17.116Z,76.80
2019-05-22T10:46:48.138Z,77.50
2019-05-22T10:49:19.450Z,78.60
2019-05-22T10:51:50.150Z,79.10
2019-05-22T10:54:20.846Z,79.50
2019-05-22T10:56:51.740Z,80.40
2019-05-22T10:59:23.281Z,80.00
2019-05-22T11:01:54.689Z,80.10
2019-05-22T11:04:27.709Z,79.90
2019-05-22T11:06:59.151Z,79.10
2019-05-22T11:09:30.826Z,78.60
2019-05-22T11:12:02.130Z,77.70
2019-05-22T11:14:33.370Z,76.90
2019-05-22T11:17:30.131Z,76.40
2019-05-22T11:20:08.235Z,76.80
2019-05-22T11:22:40.830Z,77.30
2019-05-22T11:25:15.720Z,78.20
2019-05-22T11:27:47.069Z,78.60
2019-05-22T11:30:19.367Z,78.10
2019-05-22T11:32:50.741Z,78.00
2019-05-22T11:35:22.096Z,78.00
2019-05-22T11:37:53.338Z,77.80
2019-05-22T11:40:38.484Z,77.50
2019-05-22T11:43:31.567Z,77.30
2019-05-22T11:46:03.359Z,77.20
2019-05-22T11:48:34.536Z,77.10
2019-05-22T11:51:06.341Z,77.60
2019-05-22T11:53:38.666Z,78.60
2019-05-22T11:56:16.503Z,78.90
2019-05-22T11:58:50.387Z,79.60
2019-05-22T12:01:25.952Z,80.20
2019-05-22T12:03:58.338Z,80.20
2019-05-22T12:06:34.500Z,80.30
2019-05-22T12:09:12.052Z,80.00
2019-05-22T12:11:56.380Z,79.60
2019-05-22T12:14:42.489Z,79.10
2019-05-22T12:17:48.162Z,79.10
2019-05-22T12:20:31.425Z,79.90
2019-05-22T12:23:06.040Z,79.70
2019-05-22T12:25:37.099Z,79.20
2019-05-22T12:28:15.783Z,79.70
2019-05-22T12:30:47.978Z,79.30
2019-05-22T12:33:34.347Z,79.70
2019-05-22T12:36:13.989Z,80.20
2019-05-22T12:38:45.564Z,79.80
2019-05-22T12:41:18.983Z,80.00
2019-05-22T12:43:52.469Z,79.90
2019-05-22T12:46:23.908Z,79.50
2019-05-22T12:48:54.801Z,79.00
2019-05-22T12:51:32.513Z,77.60
2019-05-22T12:54:03.588Z,76.80
2019-05-22T12:56:35.225Z,76.10
2019-05-22T12:59:08.044Z,75.10
2019-05-22T13:01:39.862Z,75.30
2019-05-22T13:04:11.665Z,75.60
2019-05-22T13:06:43.060Z,76.30
2019-05-22T13:09:14.308Z,77.60
2019-05-22T13:11:45.438Z,77.90
2019-05-22T13:14:16.811Z,78.80
2019-05-22T13:16:49.216Z,78.90
2019-05-22T13:19:27.821Z,78.90
2019-05-22T13:22:09.632Z,78.60
2019-05-22T13:25:06.263Z,78.70
2019-05-22T13:27:47.921Z,78.10
2019-05-22T13:30:23.115Z,77.20
2019-05-22T13:32:55.298Z,76.30
2019-05-22T13:35:30.193Z,75.70
2019-05-22T13:38:02.398Z,75.10
2019-05-22T13:40:33.285Z,75.40
2019-05-22T13:43:04.862Z,75.60
2019-05-22T13:45:36.132Z,75.10
2019-05-22T13:48:07.543Z,75.60
2019-05-22T13:50:38.830Z,76.80
2019-05-22T13:53:25.567Z,76.90
2019-05-22T13:56:06.165Z,77.20
2019-05-22T13:58:37.750Z,76.70
2019-05-22T14:01:08.654Z,76.40
2019-05-22T14:03:40.201Z,76.10
2019-05-22T14:06:12.112Z,75.50
2019-05-22T14:08:43.032Z,75.80
2019-05-22T14:11:15.112Z,75.80
2019-05-22T14:13:47.455Z,75.70
2019-05-22T14:16:19.648Z,75.40
2019-05-22T14:18:50.908Z,74.60
2019-05-22T14:21:28.013Z,74.60
2019-05-22T14:23:59.995Z,74.10
2019-05-22T14:26:40.638Z,73.80
2019-05-22T14:29:27.287Z,73.50
2019-05-22T14:32:05.964Z,73.00
2019-05-22T14:43:31.785Z,72.10
2019-05-22T14:46:04.154Z,72.00
2019-05-22T14:48:38.474Z,71.90
2019-05-22T14:51:17.802Z,71.40
2019-05-22T14:53:57.617Z,71.60
2019-05-22T14:56:28.902Z,72.20
2019-05-22T14:59:00.416Z,71.70
2019-05-22T15:01:31.151Z,72.00
2019-05-22T15:04:02.292Z,72.00
2019-05-22T15:06:34.056Z,71.70
2019-05-22T15:09:08.320Z,71.40
2019-05-22T15:11:39.103Z,71.30
2019-05-22T15:14:10.513Z,71.10
2019-05-22T15:16:41.288Z,71.20
2019-05-22T15:19:12.291Z,71.30
2019-05-22T15:21:43.373Z,71.20
2019-05-22T15:24:14.324Z,70.90
2019-05-22T15:26:47.161Z,71.00
2019-05-22T15:29:20.578Z,70.50
2019-05-22T15:31:51.520Z,70.50
2019-05-22T15:34:22.471Z,70.20
2019-05-22T15:36:53.258Z,69.80
2019-05-22T15:39:27.107Z,70.10
2019-05-22T15:41:59.774Z,70.10
2019-05-22T15:44:31.022Z,69.70
2019-05-22T15:47:01.888Z,69.70
2019-05-22T15:49:34.162Z,70.20
2019-05-22T15:52:09.049Z,70.30
2019-05-22T15:54:40.176Z,69.70
2019-05-22T15:57:12.910Z,69.90
2019-05-22T15:59:45.663Z,69.70
2019-05-22T16:02:21.681Z,69.80
2019-05-22T16:04:52.563Z,69.50
2019-05-22T16:07:23.832Z,68.50
2019-05-22T16:09:56.667Z,67.40
2019-05-22T16:12:28.626Z,67.00
2019-05-22T16:15:01.241Z,67.20
2019-05-22T16:17:36.283Z,67.50
2019-05-22T16:20:10.503Z,68.20
2019-05-22T16:22:41.598Z,68.30
2019-05-22T16:25:12.985Z,68.70
2019-05-22T16:27:48.106Z,68.40
2019-05-22T16:30:19.457Z,69.20
2019-05-22T16:32:51.328Z,69.50
2019-05-22T16:35:23.614Z,69.90
2019-05-22T16:37:55.064Z,69.80
2019-05-22T16:40:27.314Z,70.10
2019-05-22T16:43:00.613Z,69.70
2019-05-22T16:45:34.696Z,69.90
2019-05-22T16:48:06.736Z,70.20
2019-05-22T16:50:38.863Z,69.70
2019-05-22T16:53:13.173Z,69.60
2019-05-22T16:55:43.919Z,68.70
2019-05-22T16:58:15.775Z,68.90
2019-05-22T17:00:47.471Z,67.90
2019-05-22T17:03:19.026Z,68.10
2019-05-22T17:05:50.143Z,68.30
2019-05-22T17:08:22.020Z,68.40
2019-05-22T17:10:53.741Z,69.00
2019-05-22T17:13:26.394Z,69.10
2019-05-22T17:15:58.617Z,69.50
2019-05-22T17:18:45.892Z,69.70
2019-05-22T17:21:06.958Z,70.10
2019-05-22T17:23:37.875Z,70.10
2019-05-22T17:26:08.868Z,70.00
2019-05-22T17:28:39.637Z,71.00
2019-05-22T17:31:12.057Z,70.50
2019-05-22T17:33:44.516Z,70.40
2019-05-22T17:36:17.467Z,70.60
2019-05-22T17:38:48.784Z,70.50
2019-05-22T17:41:21.877Z,70.30
2019-05-22T17:44:01.860Z,70.20
2019-05-22T17:46:34.590Z,70.10
2019-05-22T17:49:06.218Z,70.20
2019-05-22T17:51:36.984Z,70.10
2019-05-22T17:54:08.409Z,70.00
2019-05-22T17:56:39.394Z,69.60
2019-05-22T17:59:10.147Z,69.60
2019-05-22T18:01:41.403Z,69.90
2019-05-22T18:04:13.203Z,69.80
2019-05-22T18:06:44.708Z,70.00
2019-05-22T18:09:15.463Z,69.70
2019-05-22T18:11:46.169Z,70.00
2019-05-22T18:14:16.982Z,70.20
2019-05-22T18:16:48.276Z,70.30
2019-05-22T18:19:19.216Z,70.20
2019-05-22T18:21:51.284Z,70.50
2019-05-22T18:24:23.944Z,70.70
2019-05-22T18:26:54.643Z,71.10
2019-05-22T18:29:25.342Z,71.60
2019-05-22T18:31:56.291Z,71.80
2019-05-22T18:34:28.183Z,72.20
2019-05-22T18:36:58.926Z,72.40
2019-05-22T18:39:31.514Z,72.50
2019-05-22T18:42:02.358Z,72.50
2019-05-22T18:44:33.414Z,72.70
2019-05-22T18:47:04.140Z,72.80
2019-05-22T18:49:35.082Z,73.20
2019-05-22T18:52:05.963Z,73.40
2019-05-22T18:54:36.618Z,73.60
2019-05-22T18:57:07.182Z,73.60
2019-05-22T18:59:37.797Z,73.50
2019-05-22T19:02:09.349Z,73.40
2019-05-22T19:04:40.057Z,73.50
2019-05-22T19:07:10.709Z,73.50
2019-05-22T19:09:42.488Z,73.40
2019-05-22T19:12:13.579Z,73.40
2019-05-22T19:14:44.265Z,73.40
2019-05-22T19:17:16.094Z,73.70
2019-05-22T19:19:47.140Z,73.50
2019-05-22T19:22:18.123Z,73.50
2019-05-22T19:24:49.289Z,74.40
2019-05-22T19:27:20.120Z,73.60
2019-05-22T19:29:50.835Z,73.70
2019-05-22T19:32:21.708Z,74.30
2019-05-22T19:34:52.501Z,74.00
2019-05-22T19:37:23.114Z,74.40
2019-05-22T19:39:55.126Z,74.40
2019-05-22T19:42:25.820Z,74.40
2019-05-22T19:44:56.401Z,74.40
2019-05-22T19:47:27.965Z,75.00
2019-05-22T19:49:58.669Z,75.30
2019-05-22T19:52:41.023Z,74.60
2019-05-22T19:55:02.015Z,74.90
2019-05-22T19:57:32.782Z,75.00
2019-05-22T20:00:03.949Z,75.10
2019-05-22T20:02:35.820Z,75.00
2019-05-22T20:05:08.448Z,75.30
2019-05-22T20:07:39.656Z,75.20
2019-05-22T20:10:15.917Z,75.50
2019-05-22T20:12:46.851Z,75.20
2019-05-22T20:15:17.882Z,75.30
2019-05-22T20:17:48.851Z,75.30
2019-05-22T20:20:20.876Z,75.30
2019-05-22T20:22:56.772Z,75.20
2019-05-22T20:25:27.477Z,75.40
2019-05-22T20:27:59.979Z,75.40
2019-05-22T20:30:31.276Z,75.40
2019-05-22T20:33:02.066Z,75.80
2019-05-22T20:35:33.614Z,76.00
2019-05-22T20:38:05.249Z,76.00
2019-05-22T20:40:36.191Z,76.10
2019-05-22T20:43:08.908Z,76.20
2019-05-22T20:45:42.809Z,76.30
2019-05-22T20:48:19.246Z,76.50
2019-05-22T20:50:50.935Z,76.40
2019-05-22T20:53:21.788Z,76.70
2019-05-22T20:55:53.302Z,76.90
2019-05-22T20:58:30.507Z,77.00
2019-05-22T21:01:01.449Z,77.10
2019-05-22T21:03:32.851Z,77.30
2019-05-22T21:06:07.707Z,77.30
2019-05-22T21:08:40.419Z,77.30
2019-05-22T21:11:12.922Z,77.40
2019-05-22T21:13:44.798Z,77.30
2019-05-22T21:16:16.569Z,77.30
2019-05-22T21:18:51.373Z,77.40
2019-05-22T21:21:23.813Z,77.50
2019-05-22T21:24:09.321Z,77.40
2019-05-22T21:26:31.819Z,77.40
2019-05-22T21:29:02.729Z,77.40
2019-05-22T21:31:33.622Z,77.40
2019-05-22T21:34:04.867Z,77.40
2019-05-22T21:36:35.616Z,77.50
2019-05-22T21:39:11.462Z,77.60
2019-05-22T21:41:42.306Z,77.50
2019-05-22T21:44:13.169Z,77.70
2019-05-22T21:46:44.563Z,77.70
2019-05-22T21:49:15.964Z,77.80
2019-05-22T21:51:47.448Z,78.10
2019-05-22T21:54:18.443Z,78.10
2019-05-22T21:56:50.282Z,77.90
2019-05-22T21:59:21.668Z,78.20
2019-05-22T22:01:58.956Z,78.10
2019-05-22T22:04:34.061Z,78.20
2019-05-22T22:07:05.814Z,78.10
2019-05-22T22:09:37.291Z,78.00
2019-05-22T22:12:09.262Z,78.10
2019-05-22T22:14:39.936Z,78.20
2019-05-22T22:17:12.470Z,78.00
2019-05-22T22:19:43.295Z,78.20
2019-05-22T22:22:17.052Z,78.10
2019-05-22T22:24:48.065Z,78.00
2019-05-22T22:27:19.893Z,78.50
2019-05-22T22:29:50.451Z,78.30
2019-05-22T22:32:22.811Z,78.30
2019-05-22T22:34:54.147Z,78.60
2019-05-22T22:37:26.683Z,78.50
2019-05-22T22:39:59.665Z,78.50
2019-05-22T22:42:31.605Z,78.50
2019-05-22T22:45:04.400Z,78.60
2019-05-22T22:47:37.777Z,78.70
2019-05-22T22:50:09.835Z,78.70
2019-05-22T22:52:42.410Z,78.70
2019-05-22T22:55:17.496Z,78.70
2019-05-22T22:57:51.110Z,78.70
2019-05-22T23:00:36.063Z,78.60
2019-05-22T23:03:11.642Z,78.60
2019-05-22T23:05:44.581Z,78.70
2019-05-22T23:08:19.998Z,78.70
2019-05-22T23:10:50.882Z,78.70
2019-05-22T23:13:22.662Z,78.60
2019-05-22T23:15:53.517Z,78.70
2019-05-22T23:19:00.630Z,78.70
2019-05-22T23:21:30.488Z,78.70
2019-05-22T23:24:00.982Z,78.80
2019-05-22T23:26:33.816Z,78.70
2019-05-22T23:29:05.151Z,78.60
2019-05-22T23:31:36.125Z,78.30
2019-05-22T23:34:08.063Z,78.60
2019-05-22T23:36:39.386Z,78.40
2019-05-22T23:39:12.862Z,78.30
2019-05-22T23:41:45.455Z,78.10
2019-05-22T23:44:20.021Z,78.10
2019-05-22T23:46:50.551Z,77.70
2019-05-22T23:49:21.297Z,77.70
2019-05-22T23:51:51.945Z,77.80
2019-05-22T23:54:24.346Z,77.60
2019-05-22T23:56:55.773Z,77.50
2019-05-22T23:59:27.864Z,78.40
